createdAt,value
2017-10-26T00:00:19.934Z,13.15
2017-10-26T00:02:12.789Z,13.23
2017-10-26T00:03:12.764Z,13.12
2017-10-26T00:05:05.640Z,13.22
2017-10-26T00:06:05.592Z,13.20
2017-10-26T00:07:58.444Z,13.08
2017-10-26T00:08:58.422Z,13.08
2017-10-26T00:10:51.296Z,12.95
2017-10-26T00:11:51.252Z,12.97
2017-10-26T00:13:44.103Z,13.04
2017-10-26T00:14:44.085Z,13.03
2017-10-26T00:16:36.960Z,13.03
2017-10-26T00:17:36.916Z,12.90
2017-10-26T00:19:29.765Z,12.93
2017-10-26T00:20:29.744Z,12.97
2017-10-26T00:22:22.619Z,12.98
2017-10-26T00:23:22.574Z,12.95
2017-10-26T00:25:15.422Z,12.93
2017-10-26T00:26:15.402Z,12.94
2017-10-26T00:28:08.280Z,12.91
2017-10-26T00:29:08.229Z,12.91
2017-10-26T00:31:01.091Z,12.87
2017-10-26T00:32:01.078Z,12.76
2017-10-26T00:33:53.957Z,12.80
2017-10-26T00:34:53.901Z,12.82
2017-10-26T00:36:46.752Z,12.85
2017-10-26T00:37:46.733Z,12.76
2017-10-26T00:39:39.607Z,12.82
2017-10-26T00:40:39.563Z,12.79
2017-10-26T00:42:32.417Z,12.80
2017-10-26T00:43:32.397Z,12.76
2017-10-26T00:45:25.270Z,12.76
2017-10-26T00:46:25.226Z,12.57
2017-10-26T00:48:18.078Z,12.40
2017-10-26T00:49:18.058Z,12.29
2017-10-26T00:51:10.931Z,12.25
2017-10-26T00:52:10.884Z,12.21
2017-10-26T00:54:03.734Z,12.17
2017-10-26T00:55:03.714Z,12.15
2017-10-26T00:56:56.587Z,12.22
2017-10-26T00:57:56.539Z,12.15
2017-10-26T00:59:49.391Z,12.15
2017-10-26T01:00:49.366Z,12.13
2017-10-26T01:02:42.235Z,12.10
2017-10-26T01:03:42.194Z,12.09
2017-10-26T01:05:35.040Z,12.02
2017-10-26T01:06:35.020Z,11.99
2017-10-26T01:08:27.900Z,11.90
2017-10-26T01:09:27.849Z,11.91
2017-10-26T01:11:20.698Z,11.97
2017-10-26T01:12:20.677Z,11.94
2017-10-26T01:14:13.546Z,11.99
2017-10-26T01:15:13.504Z,11.91
2017-10-26T01:17:06.352Z,12.00
2017-10-26T01:18:06.335Z,12.00
2017-10-26T01:19:59.203Z,11.94
2017-10-26T01:20:59.160Z,11.95
2017-10-26T01:22:52.013Z,11.99
2017-10-26T01:23:51.992Z,12.09
2017-10-26T01:25:44.866Z,12.00
2017-10-26T01:26:44.821Z,11.97
2017-10-26T01:28:37.669Z,12.02
2017-10-26T01:29:37.647Z,12.06
2017-10-26T01:31:30.532Z,11.86
2017-10-26T01:32:30.477Z,11.72
2017-10-26T01:34:23.326Z,11.60
2017-10-26T01:35:23.306Z,11.51
2017-10-26T01:37:16.185Z,11.37
2017-10-26T01:38:16.142Z,11.30
2017-10-26T01:40:09.011Z,11.30
2017-10-26T01:41:08.989Z,11.29
2017-10-26T01:43:01.874Z,11.30
2017-10-26T01:44:01.821Z,11.25
2017-10-26T01:45:54.662Z,11.14
2017-10-26T01:46:54.641Z,11.15
2017-10-26T01:48:47.514Z,11.11
2017-10-26T01:49:47.476Z,10.97
2017-10-26T01:51:40.328Z,11.00
2017-10-26T01:52:40.306Z,11.05
2017-10-26T01:54:33.182Z,11.14
2017-10-26T01:55:33.138Z,11.26
2017-10-26T01:57:25.983Z,11.23
2017-10-26T01:58:25.962Z,11.14
2017-10-26T02:00:18.843Z,11.08
2017-10-26T02:01:18.789Z,11.23
2017-10-26T02:03:11.645Z,11.26
2017-10-26T02:04:11.622Z,11.25
2017-10-26T02:06:04.506Z,11.32
2017-10-26T02:07:04.456Z,11.33
2017-10-26T02:08:57.301Z,11.36
2017-10-26T02:09:57.281Z,11.32
2017-10-26T02:11:50.148Z,11.32
2017-10-26T02:12:50.104Z,11.25
2017-10-26T02:14:42.955Z,11.29
2017-10-26T02:15:42.933Z,11.30
2017-10-26T02:17:35.805Z,11.30
2017-10-26T02:18:35.756Z,11.27
2017-10-26T02:20:28.616Z,11.30
2017-10-26T02:21:28.598Z,11.30
2017-10-26T02:23:21.471Z,11.08
2017-10-26T02:24:21.427Z,11.14
2017-10-26T02:26:14.272Z,11.04
2017-10-26T02:27:14.260Z,10.90
2017-10-26T02:29:07.122Z,10.89
2017-10-26T02:30:07.078Z,10.97
2017-10-26T02:31:59.933Z,10.92
2017-10-26T02:32:59.906Z,10.96
2017-10-26T02:34:52.778Z,10.94
2017-10-26T02:35:52.736Z,10.84
2017-10-26T02:37:45.584Z,10.87
2017-10-26T02:38:45.561Z,10.79
2017-10-26T02:40:38.429Z,10.82
2017-10-26T02:41:38.384Z,10.93
2017-10-26T02:43:31.236Z,10.93
2017-10-26T02:44:31.214Z,11.02
2017-10-26T02:46:24.087Z,10.87
2017-10-26T02:47:24.043Z,10.93
2017-10-26T02:49:16.893Z,10.94
2017-10-26T02:50:16.868Z,10.87
2017-10-26T02:52:09.735Z,10.94
2017-10-26T02:53:09.692Z,10.94
2017-10-26T02:55:02.548Z,10.76
2017-10-26T02:56:02.522Z,10.81
2017-10-26T02:57:55.391Z,10.78
2017-10-26T02:58:55.348Z,10.79
2017-10-26T03:00:48.193Z,10.87
2017-10-26T03:01:48.182Z,10.81
2017-10-26T03:03:41.052Z,10.82
2017-10-26T03:04:40.996Z,10.76
2017-10-26T03:06:33.841Z,10.72
2017-10-26T03:07:33.819Z,10.68
2017-10-26T03:09:26.693Z,10.63
2017-10-26T03:10:26.646Z,10.54
2017-10-26T03:12:19.494Z,10.53
2017-10-26T03:13:19.473Z,10.41
2017-10-26T03:15:12.341Z,10.38
2017-10-26T03:16:12.295Z,10.42
2017-10-26T03:18:05.146Z,10.40
2017-10-26T03:19:05.122Z,10.34
2017-10-26T03:20:57.992Z,10.40
2017-10-26T03:21:57.948Z,10.35
2017-10-26T03:23:50.800Z,10.37
2017-10-26T03:24:50.778Z,10.44
2017-10-26T03:26:43.653Z,10.54
2017-10-26T03:27:43.604Z,10.51
2017-10-26T03:29:36.456Z,10.64
2017-10-26T03:30:36.442Z,10.57
2017-10-26T03:32:29.305Z,10.49
2017-10-26T03:33:29.261Z,10.68
2017-10-26T03:35:22.128Z,10.67
2017-10-26T03:36:22.085Z,10.61
2017-10-26T03:38:14.965Z,10.64
2017-10-26T03:39:14.909Z,10.54
2017-10-26T03:41:07.770Z,10.53
2017-10-26T03:42:07.746Z,10.56
2017-10-26T03:44:00.619Z,10.57
2017-10-26T03:45:00.574Z,10.54
2017-10-26T03:46:53.422Z,10.49
2017-10-26T03:47:53.398Z,10.51
2017-10-26T03:49:46.278Z,10.46
2017-10-26T03:50:46.235Z,10.46
2017-10-26T03:52:39.072Z,10.31
2017-10-26T03:53:39.050Z,10.34
2017-10-26T03:55:31.921Z,10.42
2017-10-26T03:56:31.874Z,10.40
2017-10-26T03:58:24.731Z,10.44
2017-10-26T03:59:24.699Z,10.30
2017-10-26T04:01:17.568Z,10.28
2017-10-26T04:02:17.523Z,10.20
2017-10-26T04:04:10.386Z,10.30
2017-10-26T04:05:10.364Z,10.25
2017-10-26T04:07:03.231Z,10.22
2017-10-26T04:08:03.187Z,10.17
2017-10-26T04:09:56.032Z,10.10
2017-10-26T04:10:56.009Z,10.25
2017-10-26T04:12:48.887Z,10.30
2017-10-26T04:13:48.834Z,10.30
2017-10-26T04:15:41.691Z,10.37
2017-10-26T04:16:41.668Z,10.33
2017-10-26T04:18:34.535Z,10.44
2017-10-26T04:19:34.490Z,10.46
2017-10-26T04:21:27.381Z,10.31
2017-10-26T04:22:27.313Z,10.28
2017-10-26T04:24:20.678Z,10.30
2017-10-26T04:25:20.629Z,10.31
2017-10-26T04:27:13.486Z,10.26
2017-10-26T04:28:13.460Z,10.30
2017-10-26T04:30:06.333Z,10.15
2017-10-26T04:31:06.319Z,10.19
2017-10-26T04:32:59.142Z,10.25
2017-10-26T04:33:59.117Z,10.19
2017-10-26T04:35:51.990Z,10.25
2017-10-26T04:36:51.939Z,10.02
2017-10-26T04:38:45.285Z,10.07
2017-10-26T04:39:45.260Z,10.07
2017-10-26T04:41:38.141Z,10.15
2017-10-26T04:42:38.087Z,10.12
2017-10-26T04:44:30.934Z,10.17
2017-10-26T04:45:30.917Z,10.23
2017-10-26T04:47:23.782Z,10.26
2017-10-26T04:48:23.732Z,10.30
2017-10-26T04:50:16.585Z,10.16
2017-10-26T04:51:16.561Z,10.13
2017-10-26T04:53:09.434Z,9.98
2017-10-26T04:54:09.389Z,10.02
2017-10-26T04:56:02.236Z,10.04
2017-10-26T04:57:02.212Z,9.99
2017-10-26T04:58:55.088Z,9.95
2017-10-26T04:59:55.041Z,9.92
2017-10-26T05:01:47.891Z,9.86
2017-10-26T05:02:47.869Z,9.86
2017-10-26T05:04:40.747Z,9.79
2017-10-26T05:05:40.693Z,9.79
2017-10-26T05:07:33.538Z,9.74
2017-10-26T05:08:33.515Z,9.91
2017-10-26T05:10:26.396Z,9.92
2017-10-26T05:11:26.350Z,9.84
2017-10-26T05:13:19.211Z,9.86
2017-10-26T05:14:19.185Z,9.89
2017-10-26T05:16:12.055Z,9.79
2017-10-26T05:17:12.011Z,9.74
2017-10-26T05:19:04.871Z,9.77
2017-10-26T05:20:04.837Z,9.64
2017-10-26T05:21:57.708Z,9.58
2017-10-26T05:22:57.661Z,9.65
2017-10-26T05:24:50.508Z,9.76
2017-10-26T05:25:50.483Z,9.76
2017-10-26T05:27:43.359Z,9.86
2017-10-26T05:28:43.314Z,9.91
2017-10-26T05:30:36.656Z,9.83
2017-10-26T05:31:36.632Z,9.87
2017-10-26T05:33:29.499Z,9.97
2017-10-26T05:34:29.455Z,9.92
2017-10-26T05:36:22.801Z,10.07
2017-10-26T05:37:22.788Z,10.02
2017-10-26T05:39:15.660Z,9.94
2017-10-26T05:40:15.603Z,9.99
2017-10-26T05:42:08.450Z,10.19
2017-10-26T05:43:08.427Z,10.02
2017-10-26T05:45:01.312Z,10.17
2017-10-26T05:46:01.253Z,10.16
2017-10-26T05:47:54.101Z,10.05
2017-10-26T05:48:54.074Z,9.97
2017-10-26T05:50:47.548Z,10.02
2017-10-26T05:51:47.392Z,9.99
2017-10-26T05:53:40.243Z,10.15
2017-10-26T05:54:40.221Z,10.02
2017-10-26T05:56:33.096Z,10.02
2017-10-26T05:57:33.046Z,9.98
2017-10-26T05:59:25.893Z,10.01
2017-10-26T06:00:25.871Z,9.73
2017-10-26T06:02:18.759Z,9.62
2017-10-26T06:03:18.694Z,9.58
2017-10-26T06:05:11.539Z,9.64
2017-10-26T06:06:11.519Z,9.77
2017-10-26T06:08:04.390Z,9.69
2017-10-26T06:09:04.343Z,9.62
2017-10-26T06:10:57.192Z,9.61
2017-10-26T06:11:57.171Z,9.65
2017-10-26T06:13:50.044Z,9.64
2017-10-26T06:14:49.997Z,9.65
2017-10-26T06:16:43.341Z,9.69
2017-10-26T06:17:43.319Z,9.83
2017-10-26T06:19:36.192Z,9.89
2017-10-26T06:20:36.146Z,9.97
2017-10-26T06:22:28.993Z,10.05
2017-10-26T06:23:28.970Z,9.97
2017-10-26T06:25:21.844Z,10.07
2017-10-26T06:26:21.796Z,10.05
2017-10-26T06:28:14.647Z,9.92
2017-10-26T06:29:14.621Z,9.91
2017-10-26T06:31:07.488Z,9.97
2017-10-26T06:32:07.445Z,10.01
2017-10-26T06:34:00.289Z,9.92
2017-10-26T06:35:00.266Z,9.95
2017-10-26T06:36:53.662Z,10.04
2017-10-26T06:37:53.613Z,10.12
2017-10-26T06:39:46.953Z,10.10
2017-10-26T06:40:46.931Z,10.13
2017-10-26T06:42:39.803Z,10.20
2017-10-26T06:43:39.757Z,10.17
2017-10-26T06:45:32.604Z,10.20
2017-10-26T06:46:32.581Z,10.31
2017-10-26T06:48:25.456Z,10.25
2017-10-26T06:49:25.411Z,10.26
2017-10-26T06:51:18.750Z,10.34
2017-10-26T06:52:18.733Z,10.31
2017-10-26T06:54:11.600Z,10.42
2017-10-26T06:55:11.555Z,10.41
2017-10-26T06:57:04.407Z,10.54
2017-10-26T06:58:04.384Z,10.61
2017-10-26T06:59:57.252Z,10.54
2017-10-26T07:00:57.203Z,10.63
2017-10-26T07:02:50.054Z,10.63
2017-10-26T07:03:50.038Z,10.61
2017-10-26T07:05:42.903Z,10.74
2017-10-26T07:06:42.861Z,10.69
2017-10-26T07:08:35.712Z,10.78
2017-10-26T07:09:35.688Z,10.74
2017-10-26T07:11:28.557Z,10.82
2017-10-26T07:12:28.513Z,10.87
2017-10-26T07:14:21.363Z,10.97
2017-10-26T07:15:21.342Z,11.05
2017-10-26T07:17:14.211Z,11.33
2017-10-26T07:18:14.166Z,11.51
2017-10-26T07:20:07.015Z,11.44
2017-10-26T07:21:06.998Z,11.48
2017-10-26T07:22:59.867Z,11.57
2017-10-26T07:23:59.818Z,11.73
2017-10-26T07:25:52.669Z,11.97
2017-10-26T07:26:52.646Z,11.83
2017-10-26T07:28:45.520Z,11.70
2017-10-26T07:29:45.476Z,11.78
2017-10-26T07:31:38.817Z,11.99
2017-10-26T07:32:38.798Z,12.18
2017-10-26T07:34:31.675Z,12.12
2017-10-26T07:35:31.624Z,12.25
2017-10-26T07:37:24.476Z,12.29
2017-10-26T07:38:24.454Z,12.18
2017-10-26T07:40:17.326Z,12.37
2017-10-26T07:41:17.283Z,12.45
2017-10-26T07:43:10.135Z,12.39
2017-10-26T07:44:10.114Z,12.55
2017-10-26T07:46:02.993Z,12.70
2017-10-26T07:47:02.944Z,12.82
2017-10-26T07:48:55.798Z,12.90
2017-10-26T07:49:55.778Z,13.00
2017-10-26T07:51:48.653Z,13.05
2017-10-26T07:52:48.610Z,13.04
2017-10-26T07:54:41.474Z,12.85
2017-10-26T07:55:41.440Z,12.97
2017-10-26T07:57:34.316Z,13.03
2017-10-26T07:58:34.271Z,12.90
2017-10-26T08:00:27.130Z,13.16
2017-10-26T08:01:27.108Z,13.19
2017-10-26T08:03:19.990Z,13.25
2017-10-26T08:04:19.944Z,13.22
2017-10-26T08:06:12.793Z,13.22
2017-10-26T08:07:12.775Z,13.23
2017-10-26T08:09:05.657Z,13.30
2017-10-26T08:10:05.604Z,13.33
2017-10-26T08:11:58.460Z,13.20
2017-10-26T08:12:58.442Z,13.37
2017-10-26T08:14:51.321Z,13.23
2017-10-26T08:15:51.275Z,13.16
2017-10-26T08:17:44.129Z,13.35
2017-10-26T08:18:44.110Z,13.38
2017-10-26T08:20:36.980Z,13.49
2017-10-26T08:21:36.941Z,13.53
2017-10-26T08:23:29.793Z,13.75
2017-10-26T08:24:29.773Z,13.71
2017-10-26T08:26:22.653Z,13.81
2017-10-26T08:27:22.608Z,13.74
2017-10-26T08:29:15.467Z,13.95
2017-10-26T08:30:15.442Z,14.10
2017-10-26T08:32:08.318Z,14.08
2017-10-26T08:33:08.277Z,14.18
2017-10-26T08:35:01.131Z,14.40
2017-10-26T08:36:01.115Z,14.32
2017-10-26T08:37:54.001Z,14.33
2017-10-26T08:38:53.950Z,14.45
2017-10-26T08:40:46.813Z,14.45
2017-10-26T08:41:46.786Z,14.62
2017-10-26T08:43:39.668Z,14.45
2017-10-26T08:44:39.620Z,14.45
2017-10-26T08:46:32.483Z,14.40
2017-10-26T08:47:32.462Z,14.41
2017-10-26T08:49:25.345Z,14.36
2017-10-26T08:50:25.302Z,14.41
2017-10-26T08:52:18.158Z,14.29
2017-10-26T08:53:18.137Z,14.37
2017-10-26T08:55:11.023Z,14.43
2017-10-26T08:56:10.984Z,14.22
2017-10-26T08:58:03.843Z,14.51
2017-10-26T08:59:03.832Z,14.45
2017-10-26T09:00:56.708Z,14.73
2017-10-26T09:01:56.668Z,14.84
2017-10-26T09:03:49.526Z,15.15
2017-10-26T09:04:49.506Z,15.21
2017-10-26T09:06:42.386Z,15.58
2017-10-26T09:07:42.343Z,15.70
2017-10-26T09:09:35.204Z,15.76
2017-10-26T09:10:35.185Z,15.57
2017-10-26T09:12:28.066Z,15.76
2017-10-26T09:13:28.029Z,15.58
2017-10-26T09:15:21.382Z,15.77
2017-10-26T09:16:21.362Z,16.01
2017-10-26T09:18:14.255Z,15.82
2017-10-26T09:19:14.204Z,15.84
2017-10-26T09:21:07.064Z,15.91
2017-10-26T09:22:07.048Z,15.68
2017-10-26T09:23:59.925Z,15.19
2017-10-26T09:24:59.883Z,15.18
2017-10-26T09:26:52.743Z,15.35
2017-10-26T09:27:52.727Z,15.33
2017-10-26T09:29:47.100Z,14.96
2017-10-26T09:30:47.058Z,15.00
2017-10-26T09:32:39.920Z,15.11
2017-10-26T09:33:39.901Z,15.11
2017-10-26T09:35:32.789Z,14.91
2017-10-26T09:36:32.740Z,14.81
2017-10-26T09:38:25.593Z,14.72
2017-10-26T09:39:25.578Z,14.77
2017-10-26T09:41:18.463Z,14.78
2017-10-26T09:42:18.418Z,14.96
2017-10-26T09:44:11.283Z,14.84
2017-10-26T09:45:11.264Z,14.73
2017-10-26T09:47:04.645Z,14.77
2017-10-26T09:48:04.624Z,14.62
2017-10-26T09:49:57.464Z,14.69
2017-10-26T09:50:57.448Z,14.63
2017-10-26T09:52:50.329Z,14.78
2017-10-26T09:53:50.282Z,14.84
2017-10-26T09:55:43.137Z,14.89
2017-10-26T09:56:43.121Z,15.03
2017-10-26T09:58:36.010Z,14.81
2017-10-26T09:59:35.962Z,14.84
2017-10-26T10:01:28.827Z,14.79
2017-10-26T10:02:28.809Z,14.84
2017-10-26T10:04:21.686Z,14.88
2017-10-26T10:05:21.645Z,15.03
2017-10-26T10:07:14.505Z,15.06
2017-10-26T10:08:14.486Z,15.02
2017-10-26T10:10:07.375Z,15.07
2017-10-26T10:11:07.327Z,15.06
2017-10-26T10:13:00.179Z,15.21
2017-10-26T10:14:00.162Z,15.28
2017-10-26T10:15:53.045Z,15.49
2017-10-26T10:16:53.007Z,15.42
2017-10-26T10:18:45.865Z,15.59
2017-10-26T10:19:45.847Z,15.72
2017-10-26T10:21:38.733Z,15.80
2017-10-26T10:22:38.691Z,15.86
2017-10-26T10:24:31.553Z,15.73
2017-10-26T10:25:31.533Z,15.70
2017-10-26T10:27:25.415Z,15.72
2017-10-26T10:28:25.376Z,15.54
2017-10-26T10:30:18.238Z,15.31
2017-10-26T10:31:18.223Z,15.28
2017-10-26T10:33:11.120Z,15.61
2017-10-26T10:34:11.069Z,15.58
2017-10-26T10:36:03.925Z,15.65
2017-10-26T10:37:03.908Z,15.76
2017-10-26T10:38:56.794Z,15.73
2017-10-26T10:39:56.750Z,15.84
2017-10-26T10:41:49.619Z,15.83
2017-10-26T10:42:49.604Z,15.97
2017-10-26T10:44:42.487Z,15.98
2017-10-26T10:45:42.446Z,16.08
2017-10-26T10:47:35.303Z,16.23
2017-10-26T10:48:35.288Z,16.17
2017-10-26T10:50:28.180Z,15.95
2017-10-26T10:51:28.130Z,15.84
2017-10-26T10:53:21.003Z,15.79
2017-10-26T10:54:20.982Z,15.62
2017-10-26T10:56:13.864Z,15.86
2017-10-26T10:57:13.827Z,15.83
2017-10-26T10:59:06.687Z,15.83
2017-10-26T11:00:06.670Z,15.68
2017-10-26T11:01:59.555Z,15.75
2017-10-26T11:02:59.517Z,15.61
2017-10-26T11:04:52.374Z,15.61
2017-10-26T11:05:52.363Z,15.64
2017-10-26T11:07:45.244Z,15.62
2017-10-26T11:08:45.207Z,15.79
2017-10-26T11:10:38.067Z,16.04
2017-10-26T11:11:38.061Z,16.29
2017-10-26T11:13:30.934Z,16.65
2017-10-26T11:14:30.894Z,16.75
2017-10-26T11:16:23.756Z,16.69
2017-10-26T11:17:23.742Z,16.71
2017-10-26T11:19:16.640Z,16.97
2017-10-26T11:20:16.586Z,17.20
2017-10-26T11:22:09.952Z,17.15
2017-10-26T11:23:09.933Z,17.04
2017-10-26T11:25:03.321Z,17.14
2017-10-26T11:26:03.284Z,17.01
2017-10-26T11:27:56.169Z,17.14
2017-10-26T11:28:56.152Z,17.31
2017-10-26T11:30:49.037Z,17.30
2017-10-26T11:31:48.999Z,17.30
2017-10-26T11:33:41.857Z,17.80
2017-10-26T11:34:41.844Z,17.95
2017-10-26T11:36:35.222Z,17.87
2017-10-26T11:37:35.179Z,17.59
2017-10-26T11:39:28.048Z,17.94
2017-10-26T11:40:28.028Z,17.90
2017-10-26T11:42:20.920Z,17.39
2017-10-26T11:43:20.881Z,17.45
2017-10-26T11:45:13.748Z,17.86
2017-10-26T11:46:13.737Z,17.68
2017-10-26T11:48:06.637Z,18.01
2017-10-26T11:49:06.590Z,18.43
2017-10-26T11:50:59.464Z,18.77
2017-10-26T11:51:59.446Z,18.92
2017-10-26T11:53:52.340Z,18.86
2017-10-26T11:54:52.306Z,19.36
2017-10-26T11:56:45.178Z,19.16
2017-10-26T11:57:45.163Z,18.84
2017-10-26T11:59:38.055Z,19.18
2017-10-26T12:00:38.018Z,19.52
2017-10-26T12:02:31.382Z,18.88
2017-10-26T12:03:31.373Z,19.29
2017-10-26T12:05:24.757Z,18.75
2017-10-26T12:06:24.721Z,18.99
2017-10-26T12:08:17.590Z,18.89
2017-10-26T12:09:17.572Z,19.34
2017-10-26T12:11:10.481Z,19.39
2017-10-26T12:12:10.435Z,19.85
2017-10-26T12:14:03.803Z,19.86
2017-10-26T12:15:03.795Z,19.55
2017-10-26T12:16:56.687Z,19.63
2017-10-26T12:17:56.653Z,19.44
2017-10-26T12:19:49.525Z,19.92
2017-10-26T12:20:49.510Z,19.77
2017-10-26T12:22:42.401Z,19.85
2017-10-26T12:23:42.387Z,20.14
2017-10-26T12:25:35.234Z,20.36
2017-10-26T12:26:35.224Z,19.84
2017-10-26T12:28:28.125Z,20.75
2017-10-26T12:29:28.080Z,21.20
2017-10-26T12:31:20.952Z,21.75
2017-10-26T12:32:20.942Z,21.66
2017-10-26T12:34:13.832Z,21.24
2017-10-26T12:35:13.802Z,21.70
2017-10-26T12:37:07.181Z,20.70
2017-10-26T12:38:07.166Z,20.47
2017-10-26T12:40:00.063Z,21.60
2017-10-26T12:41:00.033Z,21.85
2017-10-26T12:42:52.905Z,22.22
2017-10-26T12:43:52.898Z,21.89
2017-10-26T12:45:45.790Z,21.43
2017-10-26T12:46:45.755Z,21.32
2017-10-26T12:48:38.633Z,21.18
2017-10-26T12:49:38.638Z,21.21
2017-10-26T12:51:31.524Z,21.60
2017-10-26T12:52:31.489Z,21.79
2017-10-26T12:54:24.369Z,21.72
2017-10-26T12:55:24.358Z,21.75
2017-10-26T12:57:17.259Z,21.02
2017-10-26T12:58:17.231Z,21.25
2017-10-26T13:00:10.102Z,20.84
2017-10-26T13:01:10.091Z,20.96
2017-10-26T13:03:02.986Z,21.77
2017-10-26T13:04:02.951Z,21.96
2017-10-26T13:05:55.828Z,21.82
2017-10-26T13:06:55.819Z,22.44
2017-10-26T13:08:48.714Z,22.72
2017-10-26T13:09:48.686Z,22.73
2017-10-26T13:11:41.560Z,22.63
2017-10-26T13:12:41.552Z,22.72
2017-10-26T13:14:34.453Z,23.44
2017-10-26T13:15:34.418Z,23.17
2017-10-26T13:17:27.289Z,23.28
2017-10-26T13:18:27.280Z,23.00
2017-10-26T13:20:20.203Z,22.87
2017-10-26T13:21:20.163Z,23.06
2017-10-26T13:23:13.046Z,22.75
2017-10-26T13:24:13.037Z,22.84
2017-10-26T13:26:05.949Z,22.94
2017-10-26T13:27:05.906Z,23.43
2017-10-26T13:28:58.790Z,23.27
2017-10-26T13:29:58.773Z,23.31
2017-10-26T13:31:51.674Z,22.90
2017-10-26T13:32:51.637Z,23.09
2017-10-26T13:34:44.526Z,22.75
2017-10-26T13:35:44.519Z,22.66
2017-10-26T13:37:37.425Z,22.53
2017-10-26T13:38:37.389Z,22.54
2017-10-26T13:40:30.767Z,22.00
2017-10-26T13:41:30.763Z,21.70
2017-10-26T13:43:23.665Z,21.21
2017-10-26T13:44:23.627Z,21.60
2017-10-26T13:46:16.518Z,21.50
2017-10-26T13:47:16.496Z,21.27
2017-10-26T13:49:09.889Z,21.12
2017-10-26T13:50:09.858Z,21.00
2017-10-26T13:52:02.733Z,21.36
2017-10-26T13:53:02.726Z,21.46
2017-10-26T13:54:55.615Z,21.27
2017-10-26T13:55:55.580Z,21.61
2017-10-26T13:57:48.464Z,21.54
2017-10-26T13:58:48.449Z,21.64
2017-10-26T14:00:41.349Z,21.25
2017-10-26T14:01:41.316Z,21.30
2017-10-26T14:03:34.681Z,21.02
2017-10-26T14:04:34.675Z,21.32
2017-10-26T14:06:27.561Z,21.07
2017-10-26T14:07:27.527Z,20.85
2017-10-26T14:09:20.403Z,20.85
2017-10-26T14:10:20.390Z,20.66
2017-10-26T14:12:13.322Z,20.60
2017-10-26T14:13:13.291Z,20.52
2017-10-26T14:15:06.159Z,20.19
2017-10-26T14:16:06.149Z,20.31
2017-10-26T14:17:59.043Z,20.37
2017-10-26T14:18:59.011Z,20.67
2017-10-26T14:20:52.390Z,20.75
2017-10-26T14:21:52.378Z,21.09
2017-10-26T14:23:45.766Z,21.09
2017-10-26T14:24:45.732Z,21.05
2017-10-26T14:26:38.601Z,20.74
2017-10-26T14:27:38.591Z,21.05
2017-10-26T14:29:31.486Z,21.24
2017-10-26T14:30:31.454Z,21.25
2017-10-26T14:32:24.323Z,21.73
2017-10-26T14:33:24.324Z,21.93
2017-10-26T14:35:17.218Z,22.36
2017-10-26T14:36:17.178Z,22.72
2017-10-26T14:38:10.058Z,22.75
2017-10-26T14:39:10.045Z,22.83
2017-10-26T14:41:02.946Z,22.30
2017-10-26T14:42:02.905Z,22.78
2017-10-26T14:43:55.778Z,22.66
2017-10-26T14:44:55.764Z,23.36
2017-10-26T14:46:48.667Z,23.05
2017-10-26T14:47:48.635Z,23.48
2017-10-26T14:49:41.508Z,22.96
2017-10-26T14:50:41.497Z,22.66
2017-10-26T14:52:34.397Z,23.47
2017-10-26T14:53:34.366Z,23.51
2017-10-26T14:55:27.741Z,22.87
2017-10-26T14:56:27.731Z,22.84
2017-10-26T14:58:20.633Z,23.39
2017-10-26T14:59:20.601Z,23.54
2017-10-26T15:01:13.475Z,23.92
2017-10-26T15:02:13.466Z,23.55
2017-10-26T15:04:06.868Z,22.66
2017-10-26T15:05:06.833Z,22.66
2017-10-26T15:06:59.707Z,22.00
2017-10-26T15:07:59.696Z,21.92
2017-10-26T15:09:52.593Z,21.83
2017-10-26T15:10:52.555Z,21.98
2017-10-26T15:12:45.429Z,22.43
2017-10-26T15:13:45.427Z,22.17
2017-10-26T15:15:38.322Z,21.98
2017-10-26T15:16:38.285Z,22.14
2017-10-26T15:18:31.155Z,22.41
2017-10-26T15:19:31.146Z,22.28
2017-10-26T15:21:24.535Z,22.07
2017-10-26T15:22:24.502Z,22.39
2017-10-26T15:24:17.381Z,22.28
2017-10-26T15:25:17.367Z,21.79
2017-10-26T15:27:10.263Z,21.76
2017-10-26T15:28:10.228Z,21.85
2017-10-26T15:30:03.103Z,21.55
2017-10-26T15:31:03.086Z,21.64
2017-10-26T15:32:55.983Z,21.96
2017-10-26T15:33:55.948Z,21.83
2017-10-26T15:35:48.817Z,21.79
2017-10-26T15:36:48.808Z,21.43
2017-10-26T15:38:41.704Z,21.45
2017-10-26T15:39:41.668Z,21.36
2017-10-26T15:41:34.537Z,21.46
2017-10-26T15:42:34.530Z,21.24
2017-10-26T15:44:27.911Z,21.37
2017-10-26T15:45:27.875Z,21.35
2017-10-26T15:47:20.742Z,21.21
2017-10-26T15:48:20.731Z,21.18
2017-10-26T15:50:13.628Z,20.82
2017-10-26T15:51:13.593Z,20.66
2017-10-26T15:53:06.460Z,20.62
2017-10-26T15:54:06.449Z,20.74
2017-10-26T15:55:59.339Z,20.63
2017-10-26T15:56:59.301Z,20.87
2017-10-26T15:58:52.171Z,20.47
2017-10-26T15:59:52.158Z,20.52
2017-10-26T16:01:45.540Z,20.52
2017-10-26T16:02:45.503Z,20.60
2017-10-26T16:04:38.372Z,20.31
2017-10-26T16:05:38.359Z,20.16
2017-10-26T16:07:31.250Z,19.82
2017-10-26T16:08:31.213Z,19.76
2017-10-26T16:10:24.581Z,19.70
2017-10-26T16:11:24.569Z,19.55
2017-10-26T16:13:17.454Z,19.44
2017-10-26T16:14:17.429Z,19.58
2017-10-26T16:16:10.290Z,19.36
2017-10-26T16:17:10.266Z,19.19
2017-10-26T16:19:03.157Z,18.98
2017-10-26T16:20:03.123Z,19.00
2017-10-26T16:21:55.985Z,18.99
2017-10-26T16:22:55.973Z,18.96
2017-10-26T16:24:49.854Z,18.88
2017-10-26T16:25:49.818Z,18.98
2017-10-26T16:27:42.685Z,19.00
2017-10-26T16:28:42.672Z,18.84
2017-10-26T16:30:36.090Z,18.73
2017-10-26T16:31:36.022Z,18.59
2017-10-26T16:33:29.386Z,18.60
2017-10-26T16:34:29.369Z,18.66
2017-10-26T16:36:22.263Z,18.68
2017-10-26T16:37:22.216Z,18.66
2017-10-26T16:39:15.076Z,18.31
2017-10-26T16:40:15.061Z,18.19
2017-10-26T16:42:07.953Z,18.22
2017-10-26T16:43:07.912Z,18.35
2017-10-26T16:45:00.780Z,18.10
2017-10-26T16:46:00.761Z,17.92
2017-10-26T16:47:53.645Z,17.92
2017-10-26T16:48:53.613Z,17.92
2017-10-26T16:50:46.472Z,17.94
2017-10-26T16:51:46.458Z,17.92
2017-10-26T16:53:39.342Z,17.83
2017-10-26T16:54:39.309Z,17.82
2017-10-26T16:56:32.165Z,17.79
2017-10-26T16:57:32.151Z,17.78
2017-10-26T16:59:25.033Z,17.79
2017-10-26T17:00:24.992Z,17.78
2017-10-26T17:02:18.852Z,17.67
2017-10-26T17:03:18.840Z,17.48
2017-10-26T17:05:11.728Z,17.57
2017-10-26T17:06:11.684Z,17.64
2017-10-26T17:08:04.551Z,17.59
2017-10-26T17:09:04.533Z,17.59
2017-10-26T17:10:57.415Z,17.42
2017-10-26T17:11:57.383Z,17.39
2017-10-26T17:13:50.743Z,17.42
2017-10-26T17:14:50.727Z,17.48
2017-10-26T17:16:43.611Z,17.36
2017-10-26T17:17:43.577Z,17.42
2017-10-26T17:19:36.439Z,17.31
2017-10-26T17:20:36.414Z,17.33
2017-10-26T17:22:29.309Z,17.16
2017-10-26T17:23:29.258Z,16.90
2017-10-26T17:25:22.114Z,17.01
2017-10-26T17:26:22.098Z,17.12
2017-10-26T17:28:14.982Z,17.20
2017-10-26T17:29:14.941Z,17.23
2017-10-26T17:31:07.932Z,17.12
2017-10-26T17:32:07.857Z,17.01
2017-10-26T17:34:00.818Z,16.94
2017-10-26T17:35:00.676Z,16.86
2017-10-26T17:36:53.667Z,16.78
2017-10-26T17:37:53.613Z,16.75
2017-10-26T17:39:46.943Z,16.61
2017-10-26T17:40:46.906Z,16.53
2017-10-26T17:42:40.286Z,16.56
2017-10-26T17:43:40.264Z,16.53
2017-10-26T17:45:33.132Z,16.42
2017-10-26T17:46:33.096Z,16.41
2017-10-26T17:48:25.957Z,16.21
2017-10-26T17:49:25.946Z,16.21
2017-10-26T17:51:18.822Z,16.31
2017-10-26T17:52:18.778Z,16.29
2017-10-26T17:54:11.641Z,16.33
2017-10-26T17:55:11.622Z,16.28
2017-10-26T17:57:04.500Z,16.29
2017-10-26T17:58:04.456Z,16.20
2017-10-26T17:59:57.322Z,16.13
2017-10-26T18:00:57.302Z,16.01
2017-10-26T18:02:50.674Z,16.04
2017-10-26T18:03:50.633Z,15.98
2017-10-26T18:05:43.492Z,15.75
2017-10-26T18:06:43.470Z,15.75
2017-10-26T18:08:36.358Z,15.83
2017-10-26T18:09:36.311Z,15.82
2017-10-26T18:11:29.183Z,15.82
2017-10-26T18:12:29.166Z,15.84
2017-10-26T18:14:22.060Z,15.75
2017-10-26T18:15:22.004Z,15.72
2017-10-26T18:17:14.870Z,15.51
2017-10-26T18:18:14.865Z,15.57
2017-10-26T18:20:07.741Z,15.70
2017-10-26T18:21:07.690Z,15.76
2017-10-26T18:23:01.060Z,15.62
2017-10-26T18:24:01.033Z,15.65
2017-10-26T18:25:53.914Z,15.67
2017-10-26T18:26:53.874Z,15.65
2017-10-26T18:28:46.722Z,15.70
2017-10-26T18:29:46.707Z,15.61
2017-10-26T18:31:39.580Z,15.64
2017-10-26T18:32:39.542Z,15.65
2017-10-26T18:34:32.411Z,15.40
2017-10-26T18:35:32.377Z,15.35